Archival Weather

Snohomish County (Paine Fld)

Everett, Washington (KPAE)

Report from: Saturday, October 28, 2023 2:53 AM PDT
Current time: Monday, June 24, 2024 3:42 AM PDT

Current weather – Weather history – Daily summaries
Weather forecast

Temperature1.7°C (35.1°F)
Wind chill-1.5°C (29.2°F)
Dew point-2.2°C (28.0°F)
Winds 6 kts (3.1 m/s, 6.9 mph) East (100°)
Visibility10 mi. (16.1 km)
Clouds Sky clear
Altimeter30.49 in.Hg (1033 mB)
Relative humidity75 %
Density altitude-2,205 ft. (-672 m)
Sea-level pressure103.3 kPa (1033 mB, 30.50 in.Hg)
Remarks Fully automated report
Automated weather observing station with precipitation discriminator
Flight conditions Visual Meteorological Conditions
Raw dataKPAE 280953Z AUTO 10006KT 10SM CLR 02/M02 A3049 RMK AO2 SLP329 T00171022
An error has occurred. This application may no longer respond until reloaded. Reload 🗙